Wednesday, October 24, 2018, 2:56 AM GMT
Back to Local

CYQY, Sydney, N. S.

Location: , , Canada Lat: 46.167
Local Time: 2:56 AM GMT ( 2:56 GMT) Lon: -60.05
Time Zone: GMT Elev: 183 ft

Show me the last for .
Show Coded

Time T Td Feel RH Dir Speed Gust Alt SLP Vis Weather Sky Remarks
2018-10-24 02:00 28 27 - 92 120° 2 - 30.31 30.32 15 SCT250 None
2018-10-24 01:00 30 25 27 80 90° 3 - 30.31 30.32 15 FEW250 None
2018-10-24 00:00 30 27 - 86 Variable 2 - 30.31 30.32 15 CLR None
2018-10-23 23:00 30 27 - 86 130° 2 - 30.31 30.32 15 CLR None
2018-10-23 22:00 32 27 - 80 - Calm - 30.30 30.32 15 CLR None
2018-10-23 21:00 41 25 - 52 - Calm - 30.29 30.30 15 FEW025 None
2018-10-23 20:00 45 25 39 45 220° 10 - 30.27 30.29 15 FEW025 None
2018-10-23 19:00 45 25 40 45 230° 9 - 30.26 30.27 15 FEW026 None
2018-10-23 18:00 45 25 40 45 240° 8 - 30.24 30.25 15 SCT030 None
2018-10-23 17:52 45 25 37 45 230° 10 17 30.25 30.26 15 SCT032 Wind Shift: 42 min
2018-10-23 17:00 45 25 37 45 230° 9 17 30.24 30.25 15 SCT024 None
2018-10-23 16:00 45 25 38 45 260° 13 - 30.25 30.26 15 SCT032 None
2018-10-23 15:00 43 25 34 48 260° 12 20 30.25 30.27 15 FEW023 SCT043 None
2018-10-23 14:00 43 23 34 45 270° 15 22 30.25 30.26 15 FEW024 SCT042 None
2018-10-23 13:00 41 23 32 48 250° 13 18 30.24 30.25 15 SCT045 SCT250 None
2018-10-23 12:00 36 25 30 64 230° 7 - 30.23 30.24 15 SCT043 SCT250 None
2018-10-23 11:00 30 25 23 80 220° 7 - 30.21 30.22 15 FEW040 None
2018-10-23 10:00 30 25 23 80 210° 8 - 30.19 30.20 15 SCT045 None
2018-10-23 09:00 32 27 26 80 230° 7 - 30.18 30.19 15 BKN043 None
2018-10-23 08:00 34 28 30 80 200° 5 - 30.16 30.17 15 OVC047 None
2018-10-23 07:00 36 28 33 74 200° 3 - 30.14 30.15 15 OVC052 None
2018-10-23 06:00 36 28 33 74 200° 3 - 30.12 30.14 15 OVC050 None
2018-10-23 05:00 36 28 31 74 190° 6 - 30.11 30.12 15 OVC051 None
2018-10-23 04:00 36 28 32 74 220° 5 - 30.09 30.10 15 OVC040 None
2018-10-23 03:00 36 28 32 74 220° 5 - 30.08 30.09 15 OVC060 None

Support USWX by starting your Amazon purchase here.